WetterOnline ( http://www.wetteronline.de )

Wetter aktuell Wadgassen

Aktuelles Wetter: Berus (367m)

6-stündlich | Neueste Meldungen
Ortszeit Temperatur Wetter
Mi, 20.02. 19:00 7.7° C wolkig
Mi, 20.02. 13:00 7.7° C wolkenlos
Mi, 20.02. 7:00 0.5° C wolkig
Mi, 20.02. 1:00 3.9° C wolkig
Di, 19.02. 19:00 4.7° C leicht bewölkt
Di, 19.02. 13:00 8.0° C bedeckt
Di, 19.02. 7:00 5.2° C bedeckt
Di, 19.02. 1:00 5.3° C wolkig
Ortszeit Temperatur Wetter
Do, 21.02. 0:30 6.7° C bewölkt
Do, 21.02. 0:20 6.7° C bewölkt
Do, 21.02. 0:10 6.7° C bewölkt
Do, 21.02. 0:00 6.4° C leicht bewölkt
Mi, 20.02. 23:50 6.4° C leicht bewölkt
Mi, 20.02. 23:40 6.5° C fast wolkenlos
Mi, 20.02. 23:30 6.4° C leicht bewölkt
Mi, 20.02. 23:00 6.6° C bedeckt
Mi, 20.02. 22:30 6.6° C bedeckt
Mi, 20.02. 22:00 6.8° C bedeckt
Mi, 20.02. 21:30 7.6° C bewölkt
Ortszeit Relative Feuchte Sichtweite
Mi, 20.02. 19:00 71% 35 km
Mi, 20.02. 13:00 73% 24 km
Mi, 20.02. 7:00 92% 1.2 km
Mi, 20.02. 1:00 86% 30 km
Di, 19.02. 19:00 76% 50 km
Di, 19.02. 13:00 72% 60 km
Di, 19.02. 7:00 74% 45 km
Di, 19.02. 1:00 70% 50 km
Ortszeit Relative Feuchte Sichtweite
Do, 21.02. 0:30 79% 27 km
Do, 21.02. 0:20 79% -
Do, 21.02. 0:10 79% -
Do, 21.02. 0:00 80% 30 km
Mi, 20.02. 23:50 80% -
Mi, 20.02. 23:40 79% -
Mi, 20.02. 23:30 79% 29 km
Mi, 20.02. 23:00 79% 29 km
Mi, 20.02. 22:30 80% 24 km
Mi, 20.02. 22:00 79% 24 km
Mi, 20.02. 21:30 75% 30 km
Ortszeit Niederschlagsmenge Niederschlagsart
Mi, 20.02. 19:00 0.0 l/m2 in 12 Std. -
Mi, 20.02. 13:00 0.0 l/m2 in 6 Std. -
Mi, 20.02. 7:00 0.0 l/m2 in 12 Std. -
Mi, 20.02. 1:00 0.0 l/m2 in 6 Std. -
Di, 19.02. 19:00 0.7 l/m2 in 12 Std. -
Di, 19.02. 13:00 0.7 l/m2 in 6 Std. Regen
Di, 19.02. 7:00 0.0 l/m2 in 12 Std. -
Di, 19.02. 1:00 0.0 l/m2 in 6 Std. -
Ortszeit Niederschlagsmenge Niederschlagsart
Do, 21.02. 0:30 0.0 l/m2 in 1 Std. -
Do, 21.02. 0:20 keine Meldung -
Do, 21.02. 0:10 keine Meldung -
Do, 21.02. 0:00 0.0 l/m2 in 1 Std. -
Mi, 20.02. 23:50 keine Meldung -
Mi, 20.02. 23:40 keine Meldung -
Mi, 20.02. 23:30 0.0 l/m2 in 1 Std. -
Mi, 20.02. 23:00 0.0 l/m2 in 1 Std. -
Mi, 20.02. 22:30 0.0 l/m2 in 1 Std. -
Mi, 20.02. 22:00 0.0 l/m2 in 1 Std. -
Mi, 20.02. 21:30 0.0 l/m2 in 1 Std. -
Ortszeit Stärke Spitze Richtung
km/h Bft. km/h Grad Sektor
Mi, 20.02. 19:00 6 1 26 220° SW
Mi, 20.02. 13:00 4 1 11 200° S
Mi, 20.02. 7:00 0 0 11 - -
Mi, 20.02. 1:00 6 1 15 240° SW
Di, 19.02. 19:00 11 2 29 240° SW
Di, 19.02. 13:00 14 3 25 280° W
Di, 19.02. 7:00 15 3 28 230° SW
Di, 19.02. 1:00 14 3 36 210° SW
Ortszeit Stärke Spitze Richtung
km/h Bft. km/h Grad Sektor
Do, 21.02. 0:30 7 2 7 180° S
Do, 21.02. 0:20 7 2 - 180° S
Do, 21.02. 0:10 6 1 - 190° S
Do, 21.02. 0:00 7 2 7 210° SW
Mi, 20.02. 23:50 7 2 - 210° SW
Mi, 20.02. 23:40 7 2 - 210° SW
Mi, 20.02. 23:30 7 2 7 200° S
Mi, 20.02. 23:00 7 2 7 210° SW
Mi, 20.02. 22:30 7 2 7 210° SW
Mi, 20.02. 22:00 6 1 7 200° S
Mi, 20.02. 21:30 4 1 7 240° SW
Ortszeit Untergrenze Bedeckung Gattung
total tief tief mittel hoch
Mi, 20.02. 19:00 960 m 6/8 3/8 - - -
Mi, 20.02. 13:00 - 0/8 0/8 - - -
Mi, 20.02. 7:00 7800 m 8/8 0/8 - - -
Mi, 20.02. 1:00 630 m 8/8 3/8 - - -
Di, 19.02. 19:00 10500 m 4/8 0/8 - - -
Di, 19.02. 13:00 510 m 8/8 8/8 - - -
Di, 19.02. 7:00 1230 m 8/8 8/8 - - -
Di, 19.02. 1:00 6900 m 6/8 3/8 - - -
Ortszeit Bedeckungsgrad in Achtel und Wolkenuntergrenze
Do, 21.02. 0:30 7(900m)
Do, 21.02. 0:20 7(900m)
Do, 21.02. 0:10 7(900m)
Do, 21.02. 0:00 3(900m)
Mi, 20.02. 23:50 3(900m)
Mi, 20.02. 23:40 1(930m)
Mi, 20.02. 23:30 2(4200m)
Mi, 20.02. 23:00 8(4200m)
Mi, 20.02. 22:30 8(4200m)
Mi, 20.02. 22:00 8(4200m)
Mi, 20.02. 21:30 7(4500m)
Ortszeit Luftdruck NN (hPa) Tendenz (hPa in 3 Std.)
Mi, 20.02. 19:00 1026 + 0,5
Mi, 20.02. 13:00 1026 + 0,6
Mi, 20.02. 7:00 1025 + 0,4
Mi, 20.02. 1:00 1024 + 0,2
Di, 19.02. 19:00 1023 + 0,1
Di, 19.02. 13:00 1023 + 1,0
Di, 19.02. 7:00 1020 + 0,5
Di, 19.02. 1:00 1020 + 0,1
Ortszeit Luftdruck NN (hPa) Tendenz (hPa in 3 Std.)
Do, 21.02. 0:30 1027 + 0,8
Do, 21.02. 0:20 1027 keine Meldung
Do, 21.02. 0:10 1027 keine Meldung
Do, 21.02. 0:00 1027 + 0,6
Mi, 20.02. 23:50 1027 keine Meldung
Mi, 20.02. 23:40 1027 keine Meldung
Mi, 20.02. 23:30 1027 + 0,5
Mi, 20.02. 23:00 1027 + 0,6
Mi, 20.02. 22:30 1027 + 0,6
Mi, 20.02. 22:00 1027 + 0,7
Mi, 20.02. 21:30 1026 + 0,8
Ortszeit Schneehöhe (cm)
Mi, 20.02. 19:00 0
Mi, 20.02. 13:00 0
Mi, 20.02. 7:00 0
Mi, 20.02. 1:00 0
Di, 19.02. 19:00 0
Di, 19.02. 13:00 0
Di, 19.02. 7:00 0
Di, 19.02. 1:00 0
Ortszeit Schneehöhe (cm)
Do, 21.02. 0:30 0
Do, 21.02. 0:20 0
Do, 21.02. 0:10 0
Do, 21.02. 0:00 0
Mi, 20.02. 23:50 0
Mi, 20.02. 23:40 0
Mi, 20.02. 23:30 0
Mi, 20.02. 23:00 0
Mi, 20.02. 22:30 0
Mi, 20.02. 22:00 0
Mi, 20.02. 21:30 0
Link zu dieser Seite / Seite empfehlen

Das Wetter in ...